Stowe, Vermont
Current Conditions -  °F | °C
As of 6:54 PM on Thursday 27 Nov 2014 (Local Time) from KMVL Reporting Station
Overcast Overcast  
Wind Chill: -7°   Ceiling: 2200
Heat Index: -4°   Visibility: 10mi
Dew Point: -7°   Wind: 5mph
Humidity: 78%   Direction: 320°NW
Pressure: 30.02"   Gusts: NA
Location:  44.47°N, 72.68°W
Report Text: KMVL 272354Z AUTO 32004KT 10SM OVC022 M04/M07 A3002 RMK AO2 SLP179 T10391072 11022 21039 51005 TSNO
Loading
Personal Weather Stations






























Interactive Weather Map New forecast layout! Learn more

10-Day Weather Forecast

Advertisements
Track Severe Weather on mobile